Time;durP1;ratioP1;P1;durP2;ratioP2;P2;SDS_P1;SDS_P2;PMS_P1;PMS_P2;Temp;Humidity;BMP_temperature;BMP_pressure;BME280_temperature;BME280_humidity;BME280_pressure;Samples;Min_cycle;Max_cycle;Signal;HPM_P1;HPM_P2
2024/01/22 00:00:19;;;;;;;6.10;4.00;;;22.70;43.90;;;;;;222144;1261;22523;-53
2024/01/22 00:05:44;;;;;;;4.80;4.10;;;22.90;44.00;;;;;;221064;1273;22605;-53
2024/01/22 00:10:49;;;;;;;7.70;4.00;;;23.00;43.90;;;;;;221310;1262;24046;-53
2024/01/22 00:15:53;;;;;;;4.80;3.60;;;23.00;43.40;;;;;;220996;1270;22543;-55
2024/01/22 00:20:57;;;;;;;4.50;3.70;;;23.00;43.30;;;;;;221468;1268;24197;-56
2024/01/22 00:26:02;;;;;;;5.80;3.80;;;22.90;43.40;;;;;;222359;1247;24382;-55
2024/01/22 00:31:07;;;;;;;5.00;4.30;;;23.00;43.30;;;;;;222330;1260;22517;-54
2024/01/22 00:36:15;;;;;;;4.40;4.00;;;23.10;43.40;;;;;;222433;1265;23450;-56
2024/01/22 00:41:22;;;;;;;4.70;3.60;;;23.10;43.40;;;;;;222291;1256;24257;-55
2024/01/22 00:46:26;;;;;;;5.10;4.10;;;23.00;43.50;;;;;;222786;1264;22517;-55
2024/01/22 00:51:31;;;;;;;5.60;3.90;;;22.90;43.90;;;;;;222927;1262;22918;-55
2024/01/22 00:56:35;;;;;;;4.30;3.90;;;22.90;44.00;;;;;;222708;1244;22517;-55
2024/01/22 01:01:39;;;;;;;3.80;3.50;;;22.80;43.60;;;;;;222128;1257;22549;-52
2024/01/22 01:06:44;;;;;;;4.70;3.80;;;22.60;43.80;;;;;;222556;1264;22507;-55
2024/01/22 01:11:48;;;;;;;4.90;3.60;;;22.50;44.10;;;;;;222239;1264;22557;-55
2024/01/22 01:16:53;;;;;;;3.60;3.20;;;22.50;44.00;;;;;;222867;1264;24202;-53
2024/01/22 01:21:57;;;;;;;3.80;3.50;;;22.60;43.60;;;;;;222231;1263;24173;-54
2024/01/22 01:27:01;;;;;;;6.20;3.90;;;22.70;43.50;;;;;;222560;1256;22516;-54
2024/01/22 01:32:06;;;;;;;4.00;3.50;;;22.80;43.70;;;;;;222461;1264;24379;-53
2024/01/22 01:37:10;;;;;;;3.80;3.40;;;22.90;43.20;;;;;;222572;1267;22515;-52
2024/01/22 01:42:15;;;;;;;3.80;3.30;;;22.90;43.10;;;;;;224552;1260;25310;-56
2024/01/22 01:47:19;;;;;;;3.80;3.40;;;22.90;43.10;;;;;;225169;1261;22517;-55
2024/01/22 01:52:24;;;;;;;3.70;3.40;;;23.10;43.00;;;;;;222522;1262;22517;-53
2024/01/22 01:57:29;;;;;;;3.80;3.30;;;23.10;42.80;;;;;;223569;1266;25407;-54
2024/01/22 02:02:33;;;;;;;3.60;3.30;;;23.20;43.80;;;;;;222969;1255;24190;-53
2024/01/22 02:07:37;;;;;;;3.70;3.20;;;23.10;43.50;;;;;;222656;1262;22729;-50
2024/01/22 02:12:42;;;;;;;3.40;3.10;;;23.00;44.10;;;;;;222862;1267;22528;-55
2024/01/22 02:17:47;;;;;;;3.60;3.20;;;22.80;43.70;;;;;;222457;1262;22591;-52
2024/01/22 02:22:52;;;;;;;4.00;3.30;;;22.80;43.60;;;;;;222814;1267;22527;-55
2024/01/22 02:27:56;;;;;;;3.20;3.00;;;22.80;44.50;;;;;;222754;1264;22520;-53
2024/01/22 02:33:00;;;;;;;3.80;3.20;;;22.50;44.60;;;;;;222571;1260;22523;-51
2024/01/22 02:38:05;;;;;;;3.20;2.80;;;22.50;44.00;;;;;;222219;1265;22536;-53
2024/01/22 02:43:09;;;;;;;5.20;2.90;;;22.60;43.90;;;;;;222513;1261;24979;-52
2024/01/22 02:48:14;;;;;;;3.50;3.20;;;22.70;43.50;;;;;;222261;1268;24243;-56
2024/01/22 02:53:19;;;;;;;3.20;2.70;;;22.80;43.30;;;;;;222361;1266;22612;-54
2024/01/22 02:58:22;;;;;;;3.50;2.90;;;22.90;42.70;;;;;;222282;1261;24210;-56
2024/01/22 03:03:26;;;;;;;3.70;3.00;;;23.00;43.00;;;;;;222430;1262;22518;-55
2024/01/22 03:08:31;;;;;;;3.00;2.70;;;22.90;43.40;;;;;;222469;1265;23192;-54
2024/01/22 03:13:35;;;;;;;3.30;3.00;;;22.80;43.30;;;;;;222509;1266;24184;-55
2024/01/22 03:18:40;;;;;;;3.70;3.10;;;23.00;43.20;;;;;;221982;1268;22534;-54
2024/01/22 03:23:44;;;;;;;3.20;2.90;;;23.10;43.00;;;;;;222253;1252;22532;-53
2024/01/22 03:28:50;;;;;;;2.80;2.60;;;23.10;43.10;;;;;;222718;1265;24508;-54
2024/01/22 03:33:54;;;;;;;3.30;3.00;;;23.10;43.40;;;;;;222564;1266;25285;-51
2024/01/22 03:38:59;;;;;;;3.90;2.90;;;23.00;43.50;;;;;;222518;1254;25431;-53
2024/01/22 03:44:05;;;;;;;3.60;2.90;;;22.80;43.30;;;;;;222873;1266;24212;-54
2024/01/22 03:49:09;;;;;;;3.30;2.80;;;22.80;43.40;;;;;;222749;1260;22528;-53
2024/01/22 03:54:13;;;;;;;2.90;2.70;;;22.60;43.80;;;;;;222830;1266;24176;-55
2024/01/22 03:59:18;;;;;;;2.80;2.50;;;22.40;43.80;;;;;;222813;1265;24194;-54
2024/01/22 04:04:22;;;;;;;2.70;2.50;;;22.40;43.80;;;;;;222427;1254;22519;-54
2024/01/22 04:09:29;;;;;;;3.90;2.80;;;22.60;43.50;;;;;;222218;1254;24372;-55
2024/01/22 04:14:33;;;;;;;2.60;2.40;;;22.60;43.60;;;;;;222677;1265;22621;-54
2024/01/22 04:19:38;;;;;;;2.20;2.00;;;22.70;44.30;;;;;;222875;1267;22627;-56
2024/01/22 04:24:43;;;;;;;2.60;2.40;;;22.80;42.80;;;;;;223289;1265;24230;-53
2024/01/22 04:29:47;;;;;;;3.30;2.30;;;22.90;42.80;;;;;;222413;1253;22521;-53
2024/01/22 04:34:52;;;;;;;3.90;2.40;;;22.80;43.00;;;;;;222614;1268;23874;-56
2024/01/22 04:40:11;;;;;;;2.80;2.60;;;22.80;42.90;;;;;;222648;1268;22559;-55
2024/01/22 04:45:17;;;;;;;2.90;2.70;;;22.90;42.90;;;;;;222086;1245;25639;-55
2024/01/22 04:50:22;;;;;;;4.50;2.30;;;23.00;42.70;;;;;;224070;1265;24186;-54
2024/01/22 04:55:26;;;;;;;2.20;1.90;;;23.00;42.90;;;;;;222412;1265;25288;-55
2024/01/22 05:00:36;;;;;;;3.00;2.50;;;23.00;43.00;;;;;;222088;1268;24296;-56
2024/01/22 05:05:41;;;;;;;2.30;2.10;;;22.90;42.90;;;;;;222377;1268;24193;-55
2024/01/22 05:10:46;;;;;;;2.70;2.50;;;22.80;43.00;;;;;;222751;1267;23508;-53
2024/01/22 05:15:51;;;;;;;3.60;2.40;;;22.70;43.00;;;;;;222349;1263;25215;-54
2024/01/22 05:20:55;;;;;;;2.70;2.50;;;22.60;43.20;;;;;;222272;1263;24360;-52
2024/01/22 05:25:59;;;;;;;4.00;2.30;;;22.60;43.30;;;;;;222459;1268;22571;-54
2024/01/22 05:31:04;;;;;;;2.50;2.30;;;22.50;43.10;;;;;;222239;1267;23889;-55
2024/01/22 05:36:09;;;;;;;2.40;2.10;;;22.40;43.30;;;;;;222388;1267;22523;-54
2024/01/22 05:41:15;;;;;;;3.10;2.50;;;22.40;43.40;;;;;;222582;1258;24210;-54
2024/01/22 05:46:19;;;;;;;3.10;2.30;;;22.30;43.90;;;;;;219191;1266;4935920;-53
2024/01/22 05:51:23;;;;;;;2.60;2.20;;;22.50;43.50;;;;;;222439;1268;25403;-53
2024/01/22 05:56:28;;;;;;;2.60;2.40;;;22.90;42.70;;;;;;222059;1261;22568;-54
2024/01/22 06:01:32;;;;;;;2.50;2.20;;;23.40;42.10;;;;;;222521;1268;22520;-55
2024/01/22 06:06:37;;;;;;;3.20;2.20;;;23.40;41.60;;;;;;222260;1268;25353;-55
2024/01/22 06:11:41;;;;;;;4.20;2.40;;;23.30;41.80;;;;;;222869;1265;26077;-51
2024/01/22 06:16:46;;;;;;;2.10;2.00;;;23.00;42.70;;;;;;222770;1265;24351;-53
2024/01/22 06:21:51;;;;;;;2.20;1.90;;;22.90;43.20;;;;;;222707;1257;23150;-54
2024/01/22 06:26:55;;;;;;;2.40;2.10;;;22.80;42.70;;;;;;222950;1262;24201;-55
2024/01/22 06:32:00;;;;;;;2.10;2.00;;;22.70;42.90;;;;;;222364;1266;22532;-51
2024/01/22 06:37:04;;;;;;;2.40;2.20;;;22.70;42.80;;;;;;222202;1252;22608;-48
2024/01/22 06:42:08;;;;;;;3.40;2.10;;;22.70;43.30;;;;;;222574;1265;24186;-48
2024/01/22 06:47:29;;;;;;;2.60;2.40;;;22.60;43.40;;;;;;222540;1244;23931;-47
2024/01/22 06:52:36;;;;;;;2.50;2.20;;;22.60;44.10;;;;;;222628;1260;24241;-48
2024/01/22 06:57:41;;;;;;;4.10;2.00;;;22.60;43.80;;;;;;222728;1256;24263;-48
2024/01/22 07:02:48;;;;;;;2.00;1.80;;;22.60;44.10;;;;;;222761;1265;22569;-48
2024/01/22 07:07:54;;;;;;;2.50;1.90;;;22.60;44.00;;;;;;222644;1266;22543;-48
2024/01/22 07:12:59;;;;;;;2.50;2.20;;;22.60;44.40;;;;;;222388;1267;22866;-48
2024/01/22 07:18:03;;;;;;;5.30;2.20;;;22.70;43.90;;;;;;222110;1259;23777;-48
2024/01/22 07:23:08;;;;;;;5.50;2.30;;;22.80;44.10;;;;;;222366;1265;22521;-46
2024/01/22 07:28:12;;;;;;;3.60;2.00;;;22.80;44.10;;;;;;222528;1266;22524;-46
2024/01/22 07:33:16;;;;;;;5.40;2.30;;;23.00;44.10;;;;;;222049;1256;22640;-46
2024/01/22 07:38:21;;;;;;;7.60;2.00;;;22.90;44.40;;;;;;222914;1263;22581;-43
2024/01/22 07:43:26;;;;;;;6.00;2.80;;;22.90;44.30;;;;;;222967;1265;22551;-48
2024/01/22 07:48:31;;;;;;;14.40;2.70;;;22.80;45.80;;;;;;222609;1253;22593;-46
2024/01/22 07:53:35;;;;;;;2.70;1.70;;;23.00;44.90;;;;;;222239;1260;25684;-45
2024/01/22 07:58:40;;;;;;;2.20;1.90;;;22.90;44.90;;;;;;222465;1266;24260;-48
2024/01/22 08:03:45;;;;;;;3.10;2.30;;;22.70;45.00;;;;;;224026;1267;22541;-46
2024/01/22 08:08:49;;;;;;;3.90;2.00;;;22.70;45.40;;;;;;224610;1266;23347;-45
2024/01/22 08:13:54;;;;;;;7.00;2.20;;;22.60;45.20;;;;;;221760;1268;24021;-44
2024/01/22 08:18:59;;;;;;;11.80;2.80;;;22.50;45.60;;;;;;222015;1261;24225;-47
2024/01/22 08:24:04;;;;;;;4.80;2.30;;;22.50;46.40;;;;;;222092;1266;24239;-47
2024/01/22 08:29:09;;;;;;;2.50;1.80;;;22.40;46.80;;;;;;222462;1264;22521;-47
2024/01/22 08:34:15;;;;;;;3.80;2.20;;;22.30;46.80;;;;;;222061;1267;25274;-46
2024/01/22 08:39:23;;;;;;;6.80;2.90;;;22.20;47.60;;;;;;222387;1268;22523;-46
2024/01/22 08:44:27;;;;;;;9.20;2.80;;;22.40;47.20;;;;;;221892;1267;24226;-46
2024/01/22 08:49:32;;;;;;;11.20;2.30;;;22.60;47.60;;;;;;222091;1268;22789;-47
2024/01/22 08:54:39;;;;;;;5.80;2.30;;;22.80;47.00;;;;;;221811;1268;23584;-46
2024/01/22 08:59:43;;;;;;;7.40;2.50;;;23.00;46.80;;;;;;222051;1245;24102;-45
2024/01/22 09:04:47;;;;;;;4.30;2.30;;;23.20;45.50;;;;;;222073;1266;24192;-45
2024/01/22 09:09:51;;;;;;;8.60;2.70;;;23.20;45.20;;;;;;221568;1267;24266;-46
2024/01/22 09:14:55;;;;;;;9.20;2.30;;;23.20;44.60;;;;;;221802;1263;24270;-44
2024/01/22 09:20:00;;;;;;;5.40;2.60;;;23.10;44.40;;;;;;221878;1268;26467;-46
2024/01/22 09:25:05;;;;;;;5.00;2.70;;;23.10;43.90;;;;;;222186;1268;22778;-47
2024/01/22 09:30:10;;;;;;;6.60;2.20;;;22.80;44.50;;;;;;222027;1262;25287;-47
2024/01/22 09:35:14;;;;;;;3.40;2.30;;;22.80;44.50;;;;;;221893;1263;22643;-44
2024/01/22 09:40:18;;;;;;;3.20;2.40;;;22.60;44.90;;;;;;222650;1266;22547;-46
2024/01/22 09:45:33;;;;;;;4.80;2.60;;;22.60;45.00;;;;;;222962;1267;22513;-48
2024/01/22 09:50:38;;;;;;;7.10;2.60;;;22.60;45.30;;;;;;221986;1264;22582;-49
2024/01/22 09:55:42;;;;;;;7.90;2.80;;;22.50;45.60;;;;;;222187;1267;26647;-47
2024/01/22 10:00:48;;;;;;;3.80;3.00;;;22.60;46.60;;;;;;222484;1268;22629;-47
2024/01/22 10:05:54;;;;;;;6.50;3.60;;;22.40;46.60;;;;;;222605;1261;24231;-47
2024/01/22 10:10:59;;;;;;;5.10;3.40;;;22.40;45.80;;;;;;223296;1268;25616;-47
2024/01/22 10:16:10;;;;;;;9.30;3.80;;;22.50;45.40;;;;;;222042;1264;23068;-47
2024/01/22 10:21:18;;;;;;;4.70;3.70;;;22.70;45.80;;;;;;222255;1264;22536;-45
2024/01/22 10:26:23;;;;;;;7.70;4.70;;;22.90;45.20;;;;;;222424;1264;24642;-47
2024/01/22 10:31:28;;;;;;;6.80;4.50;;;22.80;45.40;;;;;;221935;1258;22611;-45
2024/01/22 10:36:35;;;;;;;8.60;5.70;;;23.00;44.70;;;;;;220636;1267;25606;-46
2024/01/22 10:41:42;;;;;;;8.40;4.90;;;22.90;44.00;;;;;;220895;1268;24501;-47
2024/01/22 10:46:47;;;;;;;5.40;4.80;;;22.90;44.30;;;;;;221556;1266;22604;-46
2024/01/22 10:51:51;;;;;;;5.20;4.50;;;22.90;44.40;;;;;;221153;1273;24210;-47
2024/01/22 10:57:02;;;;;;;6.40;4.90;;;22.90;44.50;;;;;;221924;1260;23121;-45
2024/01/22 11:02:06;;;;;;;5.70;4.40;;;22.80;45.00;;;;;;222042;1267;24324;-45
2024/01/22 11:07:13;;;;;;;4.90;4.30;;;22.80;44.80;;;;;;222675;1267;24192;-48
2024/01/22 11:12:21;;;;;;;5.10;4.60;;;22.90;44.60;;;;;;222676;1260;22640;-43
2024/01/22 11:17:25;;;;;;;5.60;4.50;;;22.90;44.90;;;;;;222149;1264;24416;-45
2024/01/22 11:22:30;;;;;;;6.60;4.90;;;22.80;45.00;;;;;;222668;1247;25609;-46
2024/01/22 11:27:38;;;;;;;6.50;4.50;;;22.60;45.10;;;;;;223069;1259;24282;-48
2024/01/22 11:32:43;;;;;;;7.50;5.10;;;22.60;45.30;;;;;;221877;1262;23696;-48
2024/01/22 11:37:48;;;;;;;5.30;4.60;;;22.60;45.90;;;;;;222147;1260;24347;-46
2024/01/22 11:42:54;;;;;;;8.30;4.40;;;22.70;46.90;;;;;;222189;1267;22535;-46
2024/01/22 11:47:58;;;;;;;5.00;4.50;;;22.70;48.20;;;;;;222257;1266;22578;-51
2024/01/22 11:53:04;;;;;;;5.20;4.70;;;23.00;48.00;;;;;;222131;1261;22560;-47
2024/01/22 11:58:09;;;;;;;10.50;4.30;;;23.10;48.00;;;;;;222908;1267;23151;-50
2024/01/22 12:03:13;;;;;;;5.60;4.30;;;23.10;48.90;;;;;;222654;1267;25347;-48
2024/01/22 12:08:18;;;;;;;4.60;3.80;;;23.00;48.90;;;;;;222438;1248;22791;-49
2024/01/22 12:13:25;;;;;;;4.30;3.90;;;23.00;49.30;;;;;;222462;1264;22533;-47
2024/01/22 12:18:29;;;;;;;4.40;4.00;;;22.90;49.90;;;;;;222378;1264;22523;-46
2024/01/22 12:23:34;;;;;;;4.50;4.10;;;22.90;49.70;;;;;;222350;1256;24235;-52
2024/01/22 12:28:39;;;;;;;4.20;3.80;;;22.80;50.30;;;;;;222103;1260;25159;-48
2024/01/22 12:33:46;;;;;;;5.30;4.70;;;22.80;50.90;;;;;;222193;1266;22541;-47
2024/01/22 12:38:53;;;;;;;4.70;4.00;;;22.70;50.70;;;;;;222337;1260;22550;-50
2024/01/22 12:43:58;;;;;;;4.50;3.70;;;22.70;51.30;;;;;;222879;1260;22523;-50
2024/01/22 12:49:03;;;;;;;4.40;3.70;;;22.60;51.00;;;;;;222584;1266;22558;-47
2024/01/22 12:54:09;;;;;;;4.50;4.10;;;22.60;51.20;;;;;;222787;1260;24621;-48
2024/01/22 12:59:14;;;;;;;4.90;4.40;;;22.60;49.40;;;;;;222257;1264;24609;-48
2024/01/22 13:04:19;;;;;;;7.00;4.40;;;22.50;48.50;;;;;;223879;1264;22639;-47
2024/01/22 13:09:23;;;;;;;5.90;4.10;;;22.50;48.20;;;;;;222694;1260;22566;-46
2024/01/22 13:14:30;;;;;;;4.30;3.90;;;22.60;48.10;;;;;;222794;1263;24218;-46
2024/01/22 13:19:39;;;;;;;6.50;4.10;;;22.70;48.40;;;;;;222619;1263;25100;-46
2024/01/22 13:24:46;;;;;;;5.00;3.70;;;22.70;48.20;;;;;;222675;1250;24340;-47
2024/01/22 13:29:51;;;;;;;4.50;3.80;;;22.70;48.30;;;;;;222307;1264;22567;-48
2024/01/22 13:34:56;;;;;;;4.90;4.10;;;22.70;48.50;;;;;;222961;1264;22525;-49
2024/01/22 13:40:01;;;;;;;5.10;4.50;;;22.80;49.30;;;;;;222349;1263;25276;-48
2024/01/22 13:45:07;;;;;;;6.10;4.40;;;22.80;48.80;;;;;;222430;1246;26517;-49
2024/01/22 13:50:13;;;;;;;4.60;4.20;;;22.80;49.10;;;;;;222895;1263;22525;-47
2024/01/22 13:55:21;;;;;;;5.00;4.20;;;22.80;49.10;;;;;;222487;1255;24228;-48
2024/01/22 14:00:27;;;;;;;5.10;4.60;;;22.70;49.40;;;;;;222402;1267;22529;-49
2024/01/22 14:05:31;;;;;;;4.00;3.70;;;22.60;49.40;;;;;;222631;1261;23886;-47
2024/01/22 14:10:36;;;;;;;5.70;4.50;;;22.60;48.90;;;;;;222578;1264;25357;-47
2024/01/22 14:15:41;;;;;;;6.40;4.00;;;22.60;49.90;;;;;;222844;1252;24193;-48
2024/01/22 14:20:48;;;;;;;4.20;3.80;;;22.70;49.30;;;;;;223121;1261;22665;-44
2024/01/22 14:26:07;;;;;;;4.80;4.10;;;22.60;48.30;;;;;;222653;1267;22669;-51
2024/01/22 14:31:15;;;;;;;4.60;4.20;;;22.70;48.00;;;;;;222623;1260;24235;-46
2024/01/22 14:36:20;;;;;;;4.80;4.30;;;22.80;47.70;;;;;;222469;1260;25566;-47
2024/01/22 14:41:25;;;;;;;3.80;3.50;;;22.80;47.50;;;;;;222294;1268;24199;-47
2024/01/22 14:46:30;;;;;;;4.90;4.20;;;22.90;47.40;;;;;;222445;1250;22820;-46
2024/01/22 14:51:35;;;;;;;4.60;4.20;;;22.90;47.60;;;;;;222146;1267;25728;-51
2024/01/22 14:56:44;;;;;;;4.20;3.90;;;22.80;47.90;;;;;;222449;1265;24284;-48
2024/01/22 15:01:50;;;;;;;4.50;4.00;;;22.80;48.20;;;;;;221351;1261;24199;-49
2024/01/22 15:06:55;;;;;;;6.90;3.50;;;22.90;48.70;;;;;;222360;1261;24321;-46
2024/01/22 15:12:00;;;;;;;8.60;4.90;;;22.70;49.10;;;;;;222662;1261;24247;-49
2024/01/22 15:17:06;;;;;;;6.90;4.30;;;22.70;49.70;;;;;;222589;1264;22540;-48
2024/01/22 15:22:10;;;;;;;7.40;5.70;;;22.70;51.60;;;;;;222543;1264;24219;-46
2024/01/22 15:27:15;;;;;;;7.60;6.10;;;22.70;53.60;;;;;;222158;1260;22526;-47
2024/01/22 15:32:21;;;;;;;10.30;6.60;;;22.60;54.90;;;;;;222423;1261;22522;-48
2024/01/22 15:37:26;;;;;;;10.30;7.30;;;22.50;53.80;;;;;;222524;1257;22545;-45
2024/01/22 15:42:30;;;;;;;14.30;7.20;;;22.50;52.60;;;;;;222264;1260;22527;-46
2024/01/22 15:47:35;;;;;;;13.10;6.50;;;22.60;53.30;;;;;;222273;1260;26179;-45
2024/01/22 15:52:40;;;;;;;9.70;6.60;;;22.70;52.90;;;;;;222206;1256;24049;-45
2024/01/22 15:57:45;;;;;;;13.90;7.80;;;22.80;54.00;;;;;;222987;1259;22531;-48
2024/01/22 16:02:49;;;;;;;10.40;7.20;;;22.90;55.30;;;;;;224772;1266;25067;-49
2024/01/22 16:07:54;;;;;;;8.20;7.30;;;23.00;55.60;;;;;;222388;1267;25427;-48
2024/01/22 16:12:59;;;;;;;10.80;6.80;;;23.00;54.70;;;;;;222430;1264;22535;-46
2024/01/22 16:18:03;;;;;;;10.60;7.10;;;22.80;55.10;;;;;;222456;1246;24203;-51
2024/01/22 16:23:08;;;;;;;10.60;6.50;;;22.70;54.50;;;;;;224114;1264;22712;-44
2024/01/22 16:28:12;;;;;;;6.70;5.90;;;22.60;54.30;;;;;;222209;1246;22917;-45
2024/01/22 16:33:16;;;;;;;9.70;6.90;;;22.60;54.30;;;;;;221767;1256;22525;-49
2024/01/22 16:38:20;;;;;;;6.40;5.70;;;22.80;54.30;;;;;;222448;1259;24224;-47
2024/01/22 16:43:24;;;;;;;9.50;6.10;;;22.60;54.40;;;;;;222581;1262;24362;-46
2024/01/22 16:48:29;;;;;;;7.60;5.70;;;22.50;55.50;;;;;;222341;1260;24190;-43
2024/01/22 16:53:33;;;;;;;6.50;5.80;;;22.50;56.00;;;;;;222163;1262;25336;-44
2024/01/22 16:58:39;;;;;;;5.80;5.20;;;22.70;54.90;;;;;;222884;1259;22545;-48
2024/01/22 17:03:44;;;;;;;8.20;5.80;;;22.80;54.50;;;;;;222637;1249;23890;-47
2024/01/22 17:08:52;;;;;;;6.90;5.70;;;22.90;54.20;;;;;;222465;1262;22521;-46
2024/01/22 17:13:56;;;;;;;6.50;5.30;;;22.90;54.60;;;;;;222283;1262;22560;-43
2024/01/22 17:19:00;;;;;;;7.00;5.80;;;22.80;54.00;;;;;;222606;1256;25256;-45
2024/01/22 17:24:05;;;;;;;6.90;5.70;;;22.80;54.00;;;;;;222618;1262;24010;-46
2024/01/22 17:29:09;;;;;;;7.40;5.00;;;22.80;54.60;;;;;;222462;1264;22529;-46
2024/01/22 17:34:14;;;;;;;11.50;5.80;;;22.70;54.60;;;;;;222335;1268;24186;-45
2024/01/22 17:39:18;;;;;;;7.60;5.70;;;22.70;54.90;;;;;;222442;1262;22527;-46
2024/01/22 17:44:23;;;;;;;8.10;5.30;;;22.60;54.90;;;;;;221962;1266;258731;-47
2024/01/22 17:49:27;;;;;;;7.80;5.60;;;22.50;55.00;;;;;;223108;1260;24372;-46
2024/01/22 17:54:32;;;;;;;8.90;5.40;;;22.50;54.70;;;;;;222456;1253;26731;-46
2024/01/22 17:59:37;;;;;;;13.60;7.90;;;22.50;54.80;;;;;;222505;1261;22610;-46
2024/01/22 18:04:41;;;;;;;12.10;6.70;;;22.60;55.90;;;;;;222615;1259;24225;-48
2024/01/22 18:09:46;;;;;;;13.50;6.60;;;22.70;56.40;;;;;;222112;1257;24052;-46
2024/01/22 18:14:50;;;;;;;12.40;6.30;;;22.70;56.10;;;;;;222484;1252;24301;-49
2024/01/22 18:19:54;;;;;;;11.40;6.80;;;22.80;55.60;;;;;;222263;1264;24199;-48
2024/01/22 18:24:59;;;;;;;10.50;6.50;;;22.80;55.50;;;;;;222430;1260;25183;-48
2024/01/22 18:30:10;;;;;;;12.20;6.50;;;22.90;55.30;;;;;;222387;1264;22520;-47
2024/01/22 18:35:15;;;;;;;10.70;6.20;;;22.90;55.20;;;;;;222530;1256;22544;-49
2024/01/22 18:40:23;;;;;;;12.50;5.90;;;23.00;54.60;;;;;;222434;1261;22759;-49
2024/01/22 18:45:27;;;;;;;14.60;6.10;;;23.00;54.00;;;;;;222765;1262;25288;-48
2024/01/22 18:50:35;;;;;;;13.10;5.90;;;23.00;54.00;;;;;;222708;1262;22523;-49
2024/01/22 18:55:39;;;;;;;11.60;6.00;;;22.90;54.10;;;;;;222256;1260;25577;-53
2024/01/22 19:00:44;;;;;;;9.40;5.40;;;22.90;54.10;;;;;;222394;1262;22546;-47
2024/01/22 19:05:48;;;;;;;9.40;6.10;;;22.90;54.20;;;;;;222425;1268;22537;-48
2024/01/22 19:10:53;;;;;;;9.60;5.40;;;22.80;53.60;;;;;;222428;1261;22583;-47
2024/01/22 19:15:57;;;;;;;9.80;4.80;;;22.70;53.80;;;;;;222500;1262;24176;-47
2024/01/22 19:21:01;;;;;;;9.20;6.20;;;22.80;53.70;;;;;;222896;1267;24253;-47
2024/01/22 19:26:06;;;;;;;9.80;5.00;;;22.80;53.20;;;;;;222510;1265;22530;-48
2024/01/22 19:31:10;;;;;;;9.90;6.00;;;22.70;53.80;;;;;;222515;1262;22517;-48
2024/01/22 19:36:14;;;;;;;8.90;4.90;;;22.60;53.50;;;;;;222764;1260;26699;-50
2024/01/22 19:41:19;;;;;;;7.60;5.00;;;22.70;54.50;;;;;;222320;1266;22798;-44
2024/01/22 19:46:23;;;;;;;9.20;5.00;;;23.10;53.60;;;;;;222408;1265;25275;-46
2024/01/22 19:51:27;;;;;;;13.40;5.60;;;23.40;52.90;;;;;;222292;1261;24213;-47
2024/01/22 19:56:31;;;;;;;12.20;4.70;;;23.50;52.40;;;;;;222356;1260;24203;-48
2024/01/22 20:01:36;;;;;;;12.20;5.50;;;23.70;52.20;;;;;;222720;1266;24341;-49
2024/01/22 20:06:40;;;;;;;12.10;5.40;;;23.60;52.00;;;;;;222724;1264;22520;-47
2024/01/22 20:11:45;;;;;;;9.70;5.00;;;23.60;52.50;;;;;;222521;1259;24251;-47
2024/01/22 20:16:50;;;;;;;13.30;5.20;;;23.40;52.10;;;;;;222353;1263;23534;-46
2024/01/22 20:21:54;;;;;;;8.30;5.00;;;23.40;52.50;;;;;;222706;1265;25403;-48
2024/01/22 20:26:58;;;;;;;11.20;4.50;;;23.30;52.20;;;;;;222814;1262;24211;-47
2024/01/22 20:32:03;;;;;;;12.50;5.30;;;23.40;52.50;;;;;;223127;1266;22516;-47
2024/01/22 20:37:08;;;;;;;7.00;4.20;;;23.20;52.20;;;;;;222885;1266;23416;-47
2024/01/22 20:42:12;;;;;;;10.80;4.60;;;23.30;52.10;;;;;;222744;1259;22520;-48
2024/01/22 20:47:17;;;;;;;8.30;5.50;;;23.20;52.10;;;;;;222635;1244;24372;-47
2024/01/22 20:52:21;;;;;;;25.00;5.30;;;23.00;52.50;;;;;;222716;1265;23898;-47
2024/01/22 20:57:25;;;;;;;6.80;4.50;;;23.00;52.00;;;;;;222382;1264;22636;-45
2024/01/22 21:02:30;;;;;;;8.40;4.30;;;22.90;51.10;;;;;;222568;1265;25285;-44
2024/01/22 21:07:39;;;;;;;7.90;4.50;;;22.80;52.20;;;;;;222717;1267;22629;-45
2024/01/22 21:12:45;;;;;;;6.60;4.10;;;22.90;52.40;;;;;;222708;1265;24103;-45
2024/01/22 21:17:49;;;;;;;6.30;4.00;;;23.00;52.10;;;;;;223845;1267;23931;-43
2024/01/22 21:22:55;;;;;;;6.40;4.30;;;23.00;51.60;;;;;;222796;1259;22609;-43
2024/01/22 21:27:59;;;;;;;12.00;4.40;;;23.10;52.50;;;;;;222271;1252;24254;-47
2024/01/22 21:33:04;;;;;;;8.10;4.30;;;23.20;53.10;;;;;;222208;1259;23831;-47
2024/01/22 21:38:09;;;;;;;7.30;4.50;;;23.30;53.00;;;;;;222309;1263;22644;-44
2024/01/22 21:43:13;;;;;;;6.30;4.10;;;23.30;53.10;;;;;;222481;1261;22540;-45
2024/01/22 21:48:18;;;;;;;10.90;4.80;;;23.20;52.90;;;;;;222433;1263;22535;-45
2024/01/22 21:53:23;;;;;;;13.40;4.40;;;23.20;54.60;;;;;;222216;1261;22520;-46
2024/01/22 21:58:27;;;;;;;7.00;3.50;;;23.20;54.40;;;;;;222411;1260;22636;-44
2024/01/22 22:03:33;;;;;;;7.10;4.50;;;23.20;54.60;;;;;;222625;1251;22529;-46
2024/01/22 22:08:39;;;;;;;10.30;4.00;;;23.10;54.00;;;;;;222688;1264;23172;-44
2024/01/22 22:13:44;;;;;;;7.10;3.90;;;23.10;54.30;;;;;;222458;1262;22523;-45
2024/01/22 22:18:50;;;;;;;5.30;4.40;;;23.10;54.10;;;;;;222565;1262;22728;-44
2024/01/22 22:23:59;;;;;;;7.50;4.30;;;23.20;54.00;;;;;;222665;1260;22520;-47
2024/01/22 22:29:05;;;;;;;6.80;3.90;;;23.10;54.70;;;;;;222817;1265;22657;-45
2024/01/22 22:34:10;;;;;;;5.60;3.90;;;23.10;54.00;;;;;;222691;1260;23947;-49
2024/01/22 22:39:19;;;;;;;4.90;3.60;;;23.10;53.80;;;;;;222451;1262;26526;-46
2024/01/22 22:44:23;;;;;;;5.60;3.80;;;23.00;53.70;;;;;;222454;1263;23887;-45
2024/01/22 22:49:28;;;;;;;5.70;3.50;;;23.00;53.80;;;;;;222209;1268;25355;-46
2024/01/22 22:54:32;;;;;;;6.80;4.10;;;22.90;54.00;;;;;;222408;1265;22608;-44
2024/01/22 22:59:37;;;;;;;4.00;3.50;;;23.00;53.70;;;;;;222580;1266;22548;-44
2024/01/22 23:04:41;;;;;;;4.60;3.20;;;23.20;53.20;;;;;;222521;1263;22521;-45
2024/01/22 23:09:45;;;;;;;4.60;3.20;;;23.40;52.80;;;;;;222392;1266;24194;-44
2024/01/22 23:14:50;;;;;;;5.70;3.60;;;23.50;52.60;;;;;;222423;1262;25423;-46
2024/01/22 23:19:57;;;;;;;3.80;2.90;;;23.50;52.60;;;;;;222338;1268;24011;-45
2024/01/22 23:25:02;;;;;;;3.90;2.70;;;23.50;52.60;;;;;;223258;1259;22627;-52
2024/01/22 23:30:07;;;;;;;5.10;3.40;;;23.40;53.00;;;;;;222622;1268;22836;-53
2024/01/22 23:35:12;;;;;;;4.80;3.50;;;23.40;52.70;;;;;;222564;1265;24189;-55
2024/01/22 23:40:16;;;;;;;6.50;3.30;;;23.30;52.50;;;;;;222613;1263;22546;-55
2024/01/22 23:45:21;;;;;;;4.60;3.10;;;23.30;52.40;;;;;;222647;1266;24337;-54
2024/01/22 23:50:25;;;;;;;3.60;3.30;;;23.20;52.40;;;;;;222800;1267;22570;-53
2024/01/22 23:55:29;;;;;;;3.10;2.80;;;23.10;51.90;;;;;;222387;1258;25470;-55
